sensor_id;sensor_type;location;lat;lon;timestamp;temperature;humidity
4697;DHT22;2362;50.780;0.292;2022-09-09T00:04:48;16.20;99.90
4697;DHT22;2362;50.780;0.292;2022-09-09T00:07:14;16.30;99.90
4697;DHT22;2362;50.780;0.292;2022-09-09T00:09:52;16.30;99.90
4697;DHT22;2362;50.780;0.292;2022-09-09T00:13:09;16.40;99.90
4697;DHT22;2362;50.780;0.292;2022-09-09T00:15:11;16.40;99.90
4697;DHT22;2362;50.780;0.292;2022-09-09T00:17:39;16.40;99.90
4697;DHT22;2362;50.780;0.292;2022-09-09T00:20:16;16.50;99.90
4697;DHT22;2362;50.780;0.292;2022-09-09T00:22:44;16.50;99.90
4697;DHT22;2362;50.780;0.292;2022-09-09T00:25:19;16.50;99.90
4697;DHT22;2362;50.780;0.292;2022-09-09T00:27:47;16.50;99.90
4697;DHT22;2362;50.780;0.292;2022-09-09T00:30:15;16.50;99.90
4697;DHT22;2362;50.780;0.292;2022-09-09T00:32:44;16.60;99.90
4697;DHT22;2362;50.780;0.292;2022-09-09T00:37:35;16.50;99.90
4697;DHT22;2362;50.780;0.292;2022-09-09T00:40:02;16.50;99.90
4697;DHT22;2362;50.780;0.292;2022-09-09T00:50:08;16.50;99.90
4697;DHT22;2362;50.780;0.292;2022-09-09T00:55:39;16.60;99.90
4697;DHT22;2362;50.780;0.292;2022-09-09T00:58:06;16.60;99.90
4697;DHT22;2362;50.780;0.292;2022-09-09T01:11:02;16.00;99.90
4697;DHT22;2362;50.780;0.292;2022-09-09T01:13:29;16.00;99.90
4697;DHT22;2362;50.780;0.292;2022-09-09T01:15:56;16.00;99.90
4697;DHT22;2362;50.780;0.292;2022-09-09T01:18:23;16.00;99.90
4697;DHT22;2362;50.780;0.292;2022-09-09T01:23:48;16.10;99.90
4697;DHT22;2362;50.780;0.292;2022-09-09T01:26:35;16.10;99.90
4697;DHT22;2362;50.780;0.292;2022-09-09T01:29:02;16.10;99.90
4697;DHT22;2362;50.780;0.292;2022-09-09T01:33:54;16.00;99.90
4697;DHT22;2362;50.780;0.292;2022-09-09T01:38:47;16.00;99.90
4697;DHT22;2362;50.780;0.292;2022-09-09T01:41:13;16.10;99.90
4697;DHT22;2362;50.780;0.292;2022-09-09T01:43:39;16.10;99.90
4697;DHT22;2362;50.780;0.292;2022-09-09T01:46:04;16.10;99.90
4697;DHT22;2362;50.780;0.292;2022-09-09T01:48:31;16.10;99.90
4697;DHT22;2362;50.780;0.292;2022-09-09T01:50:56;16.10;99.90
4697;DHT22;2362;50.780;0.292;2022-09-09T01:53:22;16.00;99.90
4697;DHT22;2362;50.780;0.292;2022-09-09T02:03:28;16.00;99.90
4697;DHT22;2362;50.780;0.292;2022-09-09T02:06:15;15.90;99.90
4697;DHT22;2362;50.780;0.292;2022-09-09T02:08:48;15.90;99.90
4697;DHT22;2362;50.780;0.292;2022-09-09T02:11:15;15.90;99.90
4697;DHT22;2362;50.780;0.292;2022-09-09T02:13:41;15.90;99.90
4697;DHT22;2362;50.780;0.292;2022-09-09T02:16:12;15.90;99.90
4697;DHT22;2362;50.780;0.292;2022-09-09T02:21:10;16.00;99.90
4697;DHT22;2362;50.780;0.292;2022-09-09T02:23:37;16.00;99.90
4697;DHT22;2362;50.780;0.292;2022-09-09T02:26:05;16.00;99.90
4697;DHT22;2362;50.780;0.292;2022-09-09T02:28:31;16.00;99.90
4697;DHT22;2362;50.780;0.292;2022-09-09T02:30:57;15.80;99.90
4697;DHT22;2362;50.780;0.292;2022-09-09T02:33:27;15.70;99.90
4697;DHT22;2362;50.780;0.292;2022-09-09T02:35:53;15.60;99.90
4697;DHT22;2362;50.780;0.292;2022-09-09T02:38:21;15.60;99.90
4697;DHT22;2362;50.780;0.292;2022-09-09T02:40:51;15.50;99.90
4697;DHT22;2362;50.780;0.292;2022-09-09T02:43:17;15.40;99.90
4697;DHT22;2362;50.780;0.292;2022-09-09T02:48:25;15.30;99.90
4697;DHT22;2362;50.780;0.292;2022-09-09T02:53:23;15.30;99.90
4697;DHT22;2362;50.780;0.292;2022-09-09T02:56:02;15.30;99.90
4697;DHT22;2362;50.780;0.292;2022-09-09T02:58:29;15.30;99.90
4697;DHT22;2362;50.780;0.292;2022-09-09T03:00:55;15.30;99.90
4697;DHT22;2362;50.780;0.292;2022-09-09T03:03:23;15.30;99.90
4697;DHT22;2362;50.780;0.292;2022-09-09T03:05:49;15.30;99.90
4697;DHT22;2362;50.780;0.292;2022-09-09T03:08:14;15.30;99.90
4697;DHT22;2362;50.780;0.292;2022-09-09T03:10:40;15.30;99.90
4697;DHT22;2362;50.780;0.292;2022-09-09T03:13:06;15.30;99.90
4697;DHT22;2362;50.780;0.292;2022-09-09T03:15:31;15.20;99.90
4697;DHT22;2362;50.780;0.292;2022-09-09T03:17:58;15.20;99.90
4697;DHT22;2362;50.780;0.292;2022-09-09T03:20:24;15.20;99.90
4697;DHT22;2362;50.780;0.292;2022-09-09T03:22:52;15.20;99.90
4697;DHT22;2362;50.780;0.292;2022-09-09T03:25:17;15.20;99.90
4697;DHT22;2362;50.780;0.292;2022-09-09T03:27:43;15.20;99.90
4697;DHT22;2362;50.780;0.292;2022-09-09T03:30:09;15.20;99.90
4697;DHT22;2362;50.780;0.292;2022-09-09T03:32:35;15.10;99.90
4697;DHT22;2362;50.780;0.292;2022-09-09T03:35:00;15.10;99.90
4697;DHT22;2362;50.780;0.292;2022-09-09T03:37:26;15.00;99.90
4697;DHT22;2362;50.780;0.292;2022-09-09T03:39:51;15.00;99.90
4697;DHT22;2362;50.780;0.292;2022-09-09T03:42:19;15.00;99.90
4697;DHT22;2362;50.780;0.292;2022-09-09T03:44:46;14.90;99.90
4697;DHT22;2362;50.780;0.292;2022-09-09T03:47:16;14.90;99.90
4697;DHT22;2362;50.780;0.292;2022-09-09T03:49:42;14.90;99.90
4697;DHT22;2362;50.780;0.292;2022-09-09T03:52:08;14.90;99.90
4697;DHT22;2362;50.780;0.292;2022-09-09T03:54:34;14.90;99.90
4697;DHT22;2362;50.780;0.292;2022-09-09T03:57:00;14.90;99.90
4697;DHT22;2362;50.780;0.292;2022-09-09T03:59:25;14.90;99.90
4697;DHT22;2362;50.780;0.292;2022-09-09T04:01:51;14.80;99.90
4697;DHT22;2362;50.780;0.292;2022-09-09T04:04:17;14.80;99.90
4697;DHT22;2362;50.780;0.292;2022-09-09T04:06:43;14.70;99.90
4697;DHT22;2362;50.780;0.292;2022-09-09T04:09:08;14.70;99.90
4697;DHT22;2362;50.780;0.292;2022-09-09T04:11:34;14.70;99.90
4697;DHT22;2362;50.780;0.292;2022-09-09T04:13:59;14.70;99.90
4697;DHT22;2362;50.780;0.292;2022-09-09T04:16:25;14.70;99.90
4697;DHT22;2362;50.780;0.292;2022-09-09T04:18:51;14.60;99.90
4697;DHT22;2362;50.780;0.292;2022-09-09T04:21:18;14.70;99.90
4697;DHT22;2362;50.780;0.292;2022-09-09T04:23:44;14.70;99.90
4697;DHT22;2362;50.780;0.292;2022-09-09T04:26:09;14.70;99.90
4697;DHT22;2362;50.780;0.292;2022-09-09T04:28:35;14.70;99.90
4697;DHT22;2362;50.780;0.292;2022-09-09T04:31:14;14.80;99.90
4697;DHT22;2362;50.780;0.292;2022-09-09T04:33:40;14.80;99.90
4697;DHT22;2362;50.780;0.292;2022-09-09T04:36:06;14.80;99.90
4697;DHT22;2362;50.780;0.292;2022-09-09T04:38:32;14.90;99.90
4697;DHT22;2362;50.780;0.292;2022-09-09T04:40:57;15.00;99.90
4697;DHT22;2362;50.780;0.292;2022-09-09T04:43:23;15.00;99.90
4697;DHT22;2362;50.780;0.292;2022-09-09T04:45:51;15.00;99.90
4697;DHT22;2362;50.780;0.292;2022-09-09T04:48:17;15.10;99.90
4697;DHT22;2362;50.780;0.292;2022-09-09T04:50:42;15.10;99.90
4697;DHT22;2362;50.780;0.292;2022-09-09T04:53:08;15.20;99.90
4697;DHT22;2362;50.780;0.292;2022-09-09T04:55:34;15.20;99.90
4697;DHT22;2362;50.780;0.292;2022-09-09T04:58:03;15.20;99.90
4697;DHT22;2362;50.780;0.292;2022-09-09T05:00:29;15.20;99.90
4697;DHT22;2362;50.780;0.292;2022-09-09T05:02:55;15.30;99.90
4697;DHT22;2362;50.780;0.292;2022-09-09T05:05:20;15.30;99.90
4697;DHT22;2362;50.780;0.292;2022-09-09T05:07:46;15.30;99.90
4697;DHT22;2362;50.780;0.292;2022-09-09T05:10:13;15.30;99.90
4697;DHT22;2362;50.780;0.292;2022-09-09T05:12:39;15.30;99.90
4697;DHT22;2362;50.780;0.292;2022-09-09T05:15:05;15.40;99.90
4697;DHT22;2362;50.780;0.292;2022-09-09T05:17:30;15.30;99.90
4697;DHT22;2362;50.780;0.292;2022-09-09T05:19:56;15.30;99.90
4697;DHT22;2362;50.780;0.292;2022-09-09T05:22:22;15.30;99.90
4697;DHT22;2362;50.780;0.292;2022-09-09T05:24:49;15.40;99.90
4697;DHT22;2362;50.780;0.292;2022-09-09T05:27:16;15.40;99.90
4697;DHT22;2362;50.780;0.292;2022-09-09T05:29:43;15.40;99.90
4697;DHT22;2362;50.780;0.292;2022-09-09T05:32:10;15.40;99.90
4697;DHT22;2362;50.780;0.292;2022-09-09T05:34:35;15.40;99.90
4697;DHT22;2362;50.780;0.292;2022-09-09T05:37:03;15.40;99.90
4697;DHT22;2362;50.780;0.292;2022-09-09T05:39:29;15.40;99.90
4697;DHT22;2362;50.780;0.292;2022-09-09T05:41:55;15.40;99.90
4697;DHT22;2362;50.780;0.292;2022-09-09T05:44:21;15.40;99.90
4697;DHT22;2362;50.780;0.292;2022-09-09T05:46:48;15.40;99.90
4697;DHT22;2362;50.780;0.292;2022-09-09T05:49:14;15.40;99.90
4697;DHT22;2362;50.780;0.292;2022-09-09T05:51:41;15.40;99.90
4697;DHT22;2362;50.780;0.292;2022-09-09T05:54:08;15.50;99.90
4697;DHT22;2362;50.780;0.292;2022-09-09T05:56:34;15.50;99.90
4697;DHT22;2362;50.780;0.292;2022-09-09T05:58:59;15.50;99.90
4697;DHT22;2362;50.780;0.292;2022-09-09T06:01:29;15.50;99.90
4697;DHT22;2362;50.780;0.292;2022-09-09T06:03:55;15.50;99.90
4697;DHT22;2362;50.780;0.292;2022-09-09T06:06:29;15.50;99.90
4697;DHT22;2362;50.780;0.292;2022-09-09T06:08:56;15.60;99.90
4697;DHT22;2362;50.780;0.292;2022-09-09T06:11:24;15.60;99.90
4697;DHT22;2362;50.780;0.292;2022-09-09T06:13:50;15.60;99.90
4697;DHT22;2362;50.780;0.292;2022-09-09T06:16:19;15.60;99.90
4697;DHT22;2362;50.780;0.292;2022-09-09T06:18:46;15.70;99.90
4697;DHT22;2362;50.780;0.292;2022-09-09T06:21:16;15.70;99.90
4697;DHT22;2362;50.780;0.292;2022-09-09T06:23:42;15.70;99.90
4697;DHT22;2362;50.780;0.292;2022-09-09T06:26:13;15.70;99.90
4697;DHT22;2362;50.780;0.292;2022-09-09T06:28:39;15.80;99.90
4697;DHT22;2362;50.780;0.292;2022-09-09T06:31:07;15.80;99.90
4697;DHT22;2362;50.780;0.292;2022-09-09T06:33:34;15.80;99.90
4697;DHT22;2362;50.780;0.292;2022-09-09T06:36:01;15.80;99.90
4697;DHT22;2362;50.780;0.292;2022-09-09T06:38:27;15.90;99.90
4697;DHT22;2362;50.780;0.292;2022-09-09T06:40:53;15.90;99.90
4697;DHT22;2362;50.780;0.292;2022-09-09T06:43:21;16.00;99.90
4697;DHT22;2362;50.780;0.292;2022-09-09T06:46:21;16.10;99.90
4697;DHT22;2362;50.780;0.292;2022-09-09T06:48:39;16.10;99.90
4697;DHT22;2362;50.780;0.292;2022-09-09T06:51:22;16.10;99.90
4697;DHT22;2362;50.780;0.292;2022-09-09T06:53:51;16.10;99.90
4697;DHT22;2362;50.780;0.292;2022-09-09T06:56:18;16.10;99.90
4697;DHT22;2362;50.780;0.292;2022-09-09T06:58:44;16.20;99.90
4697;DHT22;2362;50.780;0.292;2022-09-09T07:01:11;16.30;99.90
4697;DHT22;2362;50.780;0.292;2022-09-09T07:03:40;16.30;99.90
4697;DHT22;2362;50.780;0.292;2022-09-09T07:06:06;16.30;99.90
4697;DHT22;2362;50.780;0.292;2022-09-09T07:08:33;16.30;99.90
4697;DHT22;2362;50.780;0.292;2022-09-09T07:11:05;16.40;99.90
4697;DHT22;2362;50.780;0.292;2022-09-09T07:13:31;16.40;99.90
4697;DHT22;2362;50.780;0.292;2022-09-09T07:16:06;16.40;99.90
4697;DHT22;2362;50.780;0.292;2022-09-09T07:18:32;16.30;99.90
4697;DHT22;2362;50.780;0.292;2022-09-09T07:20:58;16.40;99.90
4697;DHT22;2362;50.780;0.292;2022-09-09T07:23:24;16.50;99.90
4697;DHT22;2362;50.780;0.292;2022-09-09T07:25:50;16.60;99.90
4697;DHT22;2362;50.780;0.292;2022-09-09T07:28:17;16.60;99.90
4697;DHT22;2362;50.780;0.292;2022-09-09T07:30:42;16.70;99.90
4697;DHT22;2362;50.780;0.292;2022-09-09T07:33:08;16.90;99.90
4697;DHT22;2362;50.780;0.292;2022-09-09T07:35:35;16.80;99.90
4697;DHT22;2362;50.780;0.292;2022-09-09T07:38:02;16.90;99.90
4697;DHT22;2362;50.780;0.292;2022-09-09T07:40:32;16.80;99.90
4697;DHT22;2362;50.780;0.292;2022-09-09T07:42:58;16.90;99.90
4697;DHT22;2362;50.780;0.292;2022-09-09T07:45:24;16.90;99.90
4697;DHT22;2362;50.780;0.292;2022-09-09T07:47:50;16.90;99.90
4697;DHT22;2362;50.780;0.292;2022-09-09T07:50:15;17.00;99.90
4697;DHT22;2362;50.780;0.292;2022-09-09T07:52:41;17.10;99.90
4697;DHT22;2362;50.780;0.292;2022-09-09T07:55:07;17.10;99.90
4697;DHT22;2362;50.780;0.292;2022-09-09T07:57:32;17.20;99.90
4697;DHT22;2362;50.780;0.292;2022-09-09T07:59:58;17.30;99.90
4697;DHT22;2362;50.780;0.292;2022-09-09T08:02:24;17.30;99.90
4697;DHT22;2362;50.780;0.292;2022-09-09T08:04:50;17.30;99.90
4697;DHT22;2362;50.780;0.292;2022-09-09T08:07:17;17.30;99.90
4697;DHT22;2362;50.780;0.292;2022-09-09T08:09:43;17.30;99.90
4697;DHT22;2362;50.780;0.292;2022-09-09T08:12:09;17.50;99.90
4697;DHT22;2362;50.780;0.292;2022-09-09T08:14:34;17.50;99.90
4697;DHT22;2362;50.780;0.292;2022-09-09T08:17:00;17.70;99.90
4697;DHT22;2362;50.780;0.292;2022-09-09T08:19:26;17.90;99.90
4697;DHT22;2362;50.780;0.292;2022-09-09T08:21:54;18.20;99.90
4697;DHT22;2362;50.780;0.292;2022-09-09T08:24:20;18.20;99.90
4697;DHT22;2362;50.780;0.292;2022-09-09T08:26:47;18.20;99.90
4697;DHT22;2362;50.780;0.292;2022-09-09T08:29:14;18.00;99.90
4697;DHT22;2362;50.780;0.292;2022-09-09T08:31:41;18.00;99.90
4697;DHT22;2362;50.780;0.292;2022-09-09T08:34:07;17.90;99.90
4697;DHT22;2362;50.780;0.292;2022-09-09T08:36:37;17.80;99.90
4697;DHT22;2362;50.780;0.292;2022-09-09T08:39:04;17.60;99.90
4697;DHT22;2362;50.780;0.292;2022-09-09T08:44:04;17.50;99.90
4697;DHT22;2362;50.780;0.292;2022-09-09T08:46:43;17.60;99.90
4697;DHT22;2362;50.780;0.292;2022-09-09T08:49:36;17.60;99.90
4697;DHT22;2362;50.780;0.292;2022-09-09T08:52:04;17.70;99.90
4697;DHT22;2362;50.780;0.292;2022-09-09T08:54:35;17.80;99.90
4697;DHT22;2362;50.780;0.292;2022-09-09T08:57:02;17.80;99.90
4697;DHT22;2362;50.780;0.292;2022-09-09T08:59:29;18.00;99.90
4697;DHT22;2362;50.780;0.292;2022-09-09T09:02:08;18.20;99.90
4697;DHT22;2362;50.780;0.292;2022-09-09T09:10:00;18.30;99.90
4697;DHT22;2362;50.780;0.292;2022-09-09T09:12:27;18.30;99.90
4697;DHT22;2362;50.780;0.292;2022-09-09T09:14:54;18.10;99.90
4697;DHT22;2362;50.780;0.292;2022-09-09T09:17:21;17.90;99.90
4697;DHT22;2362;50.780;0.292;2022-09-09T09:19:48;17.90;99.90
4697;DHT22;2362;50.780;0.292;2022-09-09T09:28:10;18.30;99.90
4697;DHT22;2362;50.780;0.292;2022-09-09T09:30:15;18.50;99.90
4697;DHT22;2362;50.780;0.292;2022-09-09T09:32:48;18.50;99.90
4697;DHT22;2362;50.780;0.292;2022-09-09T09:35:15;18.50;99.90
4697;DHT22;2362;50.780;0.292;2022-09-09T09:37:41;18.20;99.90
4697;DHT22;2362;50.780;0.292;2022-09-09T09:40:12;18.00;99.90
4697;DHT22;2362;50.780;0.292;2022-09-09T09:42:38;18.00;99.90
4697;DHT22;2362;50.780;0.292;2022-09-09T09:48:00;18.00;99.90
4697;DHT22;2362;50.780;0.292;2022-09-09T09:50:25;18.00;99.90
4697;DHT22;2362;50.780;0.292;2022-09-09T09:52:58;18.10;99.90
4697;DHT22;2362;50.780;0.292;2022-09-09T09:55:24;18.20;99.90
4697;DHT22;2362;50.780;0.292;2022-09-09T09:57:50;18.10;99.90
4697;DHT22;2362;50.780;0.292;2022-09-09T10:00:18;18.20;99.90
4697;DHT22;2362;50.780;0.292;2022-09-09T10:02:45;18.40;99.90
4697;DHT22;2362;50.780;0.292;2022-09-09T10:05:15;18.60;99.90
4697;DHT22;2362;50.780;0.292;2022-09-09T10:07:41;18.60;99.90
4697;DHT22;2362;50.780;0.292;2022-09-09T10:10:10;18.80;99.90
4697;DHT22;2362;50.780;0.292;2022-09-09T10:15:22;18.70;99.90
4697;DHT22;2362;50.780;0.292;2022-09-09T10:36:38;19.40;99.90
4697;DHT22;2362;50.780;0.292;2022-09-09T10:38:40;19.20;99.90
4697;DHT22;2362;50.780;0.292;2022-09-09T10:41:15;19.20;99.90
4697;DHT22;2362;50.780;0.292;2022-09-09T10:43:48;19.20;99.90
4697;DHT22;2362;50.780;0.292;2022-09-09T10:51:53;19.80;99.90
4697;DHT22;2362;50.780;0.292;2022-09-09T10:57:09;20.10;99.90
4697;DHT22;2362;50.780;0.292;2022-09-09T10:59:38;20.30;99.90
4697;DHT22;2362;50.780;0.292;2022-09-09T11:02:13;20.30;99.90
4697;DHT22;2362;50.780;0.292;2022-09-09T11:04:45;20.10;99.90
4697;DHT22;2362;50.780;0.292;2022-09-09T11:07:16;20.20;99.90
4697;DHT22;2362;50.780;0.292;2022-09-09T11:09:45;20.20;99.90
4697;DHT22;2362;50.780;0.292;2022-09-09T11:12:15;20.40;99.90
4697;DHT22;2362;50.780;0.292;2022-09-09T11:14:51;20.60;99.90
4697;DHT22;2362;50.780;0.292;2022-09-09T11:17:20;20.50;99.90
4697;DHT22;2362;50.780;0.292;2022-09-09T11:19:48;20.90;99.90
4697;DHT22;2362;50.780;0.292;2022-09-09T11:24:41;20.90;99.90
4697;DHT22;2362;50.780;0.292;2022-09-09T11:27:15;20.80;99.90
4697;DHT22;2362;50.780;0.292;2022-09-09T11:35:01;20.50;99.90
4697;DHT22;2362;50.780;0.292;2022-09-09T11:40:01;20.50;99.90
4697;DHT22;2362;50.780;0.292;2022-09-09T11:42:33;20.50;99.90
4697;DHT22;2362;50.780;0.292;2022-09-09T11:45:08;20.40;99.90
4697;DHT22;2362;50.780;0.292;2022-09-09T11:47:34;20.30;99.90
4697;DHT22;2362;50.780;0.292;2022-09-09T11:52:38;20.30;99.90
4697;DHT22;2362;50.780;0.292;2022-09-09T11:55:11;20.20;99.90
4697;DHT22;2362;50.780;0.292;2022-09-09T11:57:37;20.20;99.90
4697;DHT22;2362;50.780;0.292;2022-09-09T12:00:04;20.30;99.90
4697;DHT22;2362;50.780;0.292;2022-09-09T12:02:30;20.50;99.90
4697;DHT22;2362;50.780;0.292;2022-09-09T12:09:58;20.80;99.90
4697;DHT22;2362;50.780;0.292;2022-09-09T12:12:29;21.00;99.90
4697;DHT22;2362;50.780;0.292;2022-09-09T12:14:56;21.20;99.90
4697;DHT22;2362;50.780;0.292;2022-09-09T12:17:23;21.00;99.90
4697;DHT22;2362;50.780;0.292;2022-09-09T12:22:41;21.30;99.90
4697;DHT22;2362;50.780;0.292;2022-09-09T12:27:59;21.40;99.90
4697;DHT22;2362;50.780;0.292;2022-09-09T12:31:10;21.30;99.90
4697;DHT22;2362;50.780;0.292;2022-09-09T12:33:17;21.40;99.90
4697;DHT22;2362;50.780;0.292;2022-09-09T12:35:43;21.30;99.90
4697;DHT22;2362;50.780;0.292;2022-09-09T12:38:13;21.50;99.90
4697;DHT22;2362;50.780;0.292;2022-09-09T12:40:41;21.40;99.90
4697;DHT22;2362;50.780;0.292;2022-09-09T12:43:17;21.20;99.90
4697;DHT22;2362;50.780;0.292;2022-09-09T12:45:42;21.00;99.90
4697;DHT22;2362;50.780;0.292;2022-09-09T12:48:10;20.90;99.90
4697;DHT22;2362;50.780;0.292;2022-09-09T12:50:46;20.70;99.90
4697;DHT22;2362;50.780;0.292;2022-09-09T12:55:49;20.40;99.90
4697;DHT22;2362;50.780;0.292;2022-09-09T12:58:15;20.40;99.90
4697;DHT22;2362;50.780;0.292;2022-09-09T13:00:53;20.40;99.90
4697;DHT22;2362;50.780;0.292;2022-09-09T13:03:21;20.20;99.90
4697;DHT22;2362;50.780;0.292;2022-09-09T13:05:48;20.10;99.90
4697;DHT22;2362;50.780;0.292;2022-09-09T13:08:14;20.00;99.90
4697;DHT22;2362;50.780;0.292;2022-09-09T13:10:42;20.10;99.90
4697;DHT22;2362;50.780;0.292;2022-09-09T13:13:17;20.10;99.90
4697;DHT22;2362;50.780;0.292;2022-09-09T13:15:50;20.10;99.90
4697;DHT22;2362;50.780;0.292;2022-09-09T13:18:16;19.90;99.90
4697;DHT22;2362;50.780;0.292;2022-09-09T13:20:46;19.90;99.90
4697;DHT22;2362;50.780;0.292;2022-09-09T13:23:11;19.80;99.90
4697;DHT22;2362;50.780;0.292;2022-09-09T13:25:37;19.80;99.90
4697;DHT22;2362;50.780;0.292;2022-09-09T13:28:04;19.80;99.90
4697;DHT22;2362;50.780;0.292;2022-09-09T13:30:34;19.80;99.90
4697;DHT22;2362;50.780;0.292;2022-09-09T13:38:35;19.60;99.90
4697;DHT22;2362;50.780;0.292;2022-09-09T13:41:06;19.50;99.90
4697;DHT22;2362;50.780;0.292;2022-09-09T13:43:42;19.50;99.90
4697;DHT22;2362;50.780;0.292;2022-09-09T13:49:03;19.30;99.90
4697;DHT22;2362;50.780;0.292;2022-09-09T13:51:44;19.30;99.90
4697;DHT22;2362;50.780;0.292;2022-09-09T13:54:13;19.30;99.90
4697;DHT22;2362;50.780;0.292;2022-09-09T13:56:39;19.30;99.90
4697;DHT22;2362;50.780;0.292;2022-09-09T13:59:06;19.20;99.90
4697;DHT22;2362;50.780;0.292;2022-09-09T14:01:33;19.20;99.90
4697;DHT22;2362;50.780;0.292;2022-09-09T14:04:00;19.30;99.90
4697;DHT22;2362;50.780;0.292;2022-09-09T14:06:26;19.40;99.90
4697;DHT22;2362;50.780;0.292;2022-09-09T14:08:52;19.30;99.90
4697;DHT22;2362;50.780;0.292;2022-09-09T14:11:20;19.40;99.90
4697;DHT22;2362;50.780;0.292;2022-09-09T14:13:47;19.30;99.90
4697;DHT22;2362;50.780;0.292;2022-09-09T14:16:13;19.20;99.90
4697;DHT22;2362;50.780;0.292;2022-09-09T14:18:39;19.20;99.90
4697;DHT22;2362;50.780;0.292;2022-09-09T14:21:04;19.20;99.90
4697;DHT22;2362;50.780;0.292;2022-09-09T14:23:30;19.30;99.90
4697;DHT22;2362;50.780;0.292;2022-09-09T14:25:55;19.40;99.90
4697;DHT22;2362;50.780;0.292;2022-09-09T14:28:21;19.60;99.90
4697;DHT22;2362;50.780;0.292;2022-09-09T14:30:47;19.60;99.90
4697;DHT22;2362;50.780;0.292;2022-09-09T14:33:13;19.70;99.90
4697;DHT22;2362;50.780;0.292;2022-09-09T14:35:40;19.50;99.90
4697;DHT22;2362;50.780;0.292;2022-09-09T14:38:06;19.40;99.90
4697;DHT22;2362;50.780;0.292;2022-09-09T14:40:34;19.40;99.90
4697;DHT22;2362;50.780;0.292;2022-09-09T14:43:00;19.40;99.90
4697;DHT22;2362;50.780;0.292;2022-09-09T14:45:25;19.40;99.90
4697;DHT22;2362;50.780;0.292;2022-09-09T14:47:52;19.40;99.90
4697;DHT22;2362;50.780;0.292;2022-09-09T14:50:18;19.20;99.90
4697;DHT22;2362;50.780;0.292;2022-09-09T14:52:44;19.20;99.90
4697;DHT22;2362;50.780;0.292;2022-09-09T14:55:10;19.20;99.90
4697;DHT22;2362;50.780;0.292;2022-09-09T14:57:36;19.20;99.90
4697;DHT22;2362;50.780;0.292;2022-09-09T15:00:03;19.20;99.90
4697;DHT22;2362;50.780;0.292;2022-09-09T15:02:29;19.20;99.90
4697;DHT22;2362;50.780;0.292;2022-09-09T15:04:55;19.10;99.90
4697;DHT22;2362;50.780;0.292;2022-09-09T15:07:23;19.20;99.90
4697;DHT22;2362;50.780;0.292;2022-09-09T15:09:49;19.20;99.90
4697;DHT22;2362;50.780;0.292;2022-09-09T15:12:15;19.40;99.90
4697;DHT22;2362;50.780;0.292;2022-09-09T15:14:41;19.40;99.90
4697;DHT22;2362;50.780;0.292;2022-09-09T15:17:06;19.60;99.90
4697;DHT22;2362;50.780;0.292;2022-09-09T15:19:32;19.50;99.90
4697;DHT22;2362;50.780;0.292;2022-09-09T15:21:58;19.30;99.90
4697;DHT22;2362;50.780;0.292;2022-09-09T15:24:25;19.20;99.90
4697;DHT22;2362;50.780;0.292;2022-09-09T15:26:51;19.10;99.90
4697;DHT22;2362;50.780;0.292;2022-09-09T15:29:17;19.10;99.90
4697;DHT22;2362;50.780;0.292;2022-09-09T15:31:44;19.10;99.90
4697;DHT22;2362;50.780;0.292;2022-09-09T15:34:09;19.20;99.90
4697;DHT22;2362;50.780;0.292;2022-09-09T15:36:39;19.20;99.90
4697;DHT22;2362;50.780;0.292;2022-09-09T15:39:13;19.20;99.90
4697;DHT22;2362;50.780;0.292;2022-09-09T15:41:42;19.10;99.90
4697;DHT22;2362;50.780;0.292;2022-09-09T15:44:08;19.10;99.90
4697;DHT22;2362;50.780;0.292;2022-09-09T15:46:36;19.10;99.90
4697;DHT22;2362;50.780;0.292;2022-09-09T15:49:07;19.20;99.90
4697;DHT22;2362;50.780;0.292;2022-09-09T15:51:34;19.20;99.90
4697;DHT22;2362;50.780;0.292;2022-09-09T15:54:00;19.30;99.90
4697;DHT22;2362;50.780;0.292;2022-09-09T15:56:26;19.10;99.90
4697;DHT22;2362;50.780;0.292;2022-09-09T15:58:52;19.00;99.90
4697;DHT22;2362;50.780;0.292;2022-09-09T16:01:18;19.00;99.90
4697;DHT22;2362;50.780;0.292;2022-09-09T16:03:45;19.00;99.90
4697;DHT22;2362;50.780;0.292;2022-09-09T16:06:13;19.00;99.90
4697;DHT22;2362;50.780;0.292;2022-09-09T16:08:40;18.90;99.90
4697;DHT22;2362;50.780;0.292;2022-09-09T16:11:11;18.90;99.90
4697;DHT22;2362;50.780;0.292;2022-09-09T16:13:38;18.70;99.90
4697;DHT22;2362;50.780;0.292;2022-09-09T16:16:05;18.50;99.90
4697;DHT22;2362;50.780;0.292;2022-09-09T16:18:34;18.50;99.90
4697;DHT22;2362;50.780;0.292;2022-09-09T16:21:00;18.50;99.90
4697;DHT22;2362;50.780;0.292;2022-09-09T16:23:26;18.70;99.90
4697;DHT22;2362;50.780;0.292;2022-09-09T16:25:54;18.70;99.90
4697;DHT22;2362;50.780;0.292;2022-09-09T16:28:20;18.70;99.90
4697;DHT22;2362;50.780;0.292;2022-09-09T16:30:46;18.70;99.90
4697;DHT22;2362;50.780;0.292;2022-09-09T16:33:12;18.80;99.90
4697;DHT22;2362;50.780;0.292;2022-09-09T16:35:40;18.90;99.90
4697;DHT22;2362;50.780;0.292;2022-09-09T16:38:06;19.00;99.90
4697;DHT22;2362;50.780;0.292;2022-09-09T16:40:35;19.00;99.90
4697;DHT22;2362;50.780;0.292;2022-09-09T16:43:02;19.00;99.90
4697;DHT22;2362;50.780;0.292;2022-09-09T16:45:28;19.10;99.90
4697;DHT22;2362;50.780;0.292;2022-09-09T16:47:54;19.00;99.90
4697;DHT22;2362;50.780;0.292;2022-09-09T16:50:20;19.00;99.90
4697;DHT22;2362;50.780;0.292;2022-09-09T16:52:45;19.00;99.90
4697;DHT22;2362;50.780;0.292;2022-09-09T16:55:11;19.00;99.90
4697;DHT22;2362;50.780;0.292;2022-09-09T16:57:37;19.10;99.90
4697;DHT22;2362;50.780;0.292;2022-09-09T17:00:03;19.00;99.90
4697;DHT22;2362;50.780;0.292;2022-09-09T17:02:31;19.00;99.90
4697;DHT22;2362;50.780;0.292;2022-09-09T17:04:56;19.10;99.90
4697;DHT22;2362;50.780;0.292;2022-09-09T17:07:22;19.10;99.90
4697;DHT22;2362;50.780;0.292;2022-09-09T17:09:48;19.00;99.90
4697;DHT22;2362;50.780;0.292;2022-09-09T17:12:14;18.90;99.90
4697;DHT22;2362;50.780;0.292;2022-09-09T17:14:41;18.90;99.90
4697;DHT22;2362;50.780;0.292;2022-09-09T17:17:07;18.70;99.90
4697;DHT22;2362;50.780;0.292;2022-09-09T17:19:33;18.70;99.90
4697;DHT22;2362;50.780;0.292;2022-09-09T17:21:59;18.70;99.90
4697;DHT22;2362;50.780;0.292;2022-09-09T17:24:28;18.70;99.90
4697;DHT22;2362;50.780;0.292;2022-09-09T17:26:54;18.60;99.90
4697;DHT22;2362;50.780;0.292;2022-09-09T17:29:20;18.50;99.90
4697;DHT22;2362;50.780;0.292;2022-09-09T17:31:46;18.50;99.90
4697;DHT22;2362;50.780;0.292;2022-09-09T17:34:12;18.50;99.90
4697;DHT22;2362;50.780;0.292;2022-09-09T17:36:38;18.40;99.90
4697;DHT22;2362;50.780;0.292;2022-09-09T17:39:04;18.40;99.90
4697;DHT22;2362;50.780;0.292;2022-09-09T17:41:31;18.30;99.90
4697;DHT22;2362;50.780;0.292;2022-09-09T17:43:57;18.30;99.90
4697;DHT22;2362;50.780;0.292;2022-09-09T17:46:25;18.30;99.90
4697;DHT22;2362;50.780;0.292;2022-09-09T17:48:54;18.30;99.90
4697;DHT22;2362;50.780;0.292;2022-09-09T17:51:21;18.20;99.90
4697;DHT22;2362;50.780;0.292;2022-09-09T17:53:50;18.20;99.90
4697;DHT22;2362;50.780;0.292;2022-09-09T17:56:17;18.10;99.90
4697;DHT22;2362;50.780;0.292;2022-09-09T17:58:45;18.10;99.90
4697;DHT22;2362;50.780;0.292;2022-09-09T18:01:12;18.00;99.90
4697;DHT22;2362;50.780;0.292;2022-09-09T18:03:38;17.90;99.90
4697;DHT22;2362;50.780;0.292;2022-09-09T18:06:05;17.90;99.90
4697;DHT22;2362;50.780;0.292;2022-09-09T18:08:31;17.80;99.90
4697;DHT22;2362;50.780;0.292;2022-09-09T18:10:58;17.70;99.90
4697;DHT22;2362;50.780;0.292;2022-09-09T18:13:26;17.70;99.90
4697;DHT22;2362;50.780;0.292;2022-09-09T18:15:51;17.60;99.90